createdAt,value
2023-01-12T00:03:09.427Z,12.90
2023-01-12T00:07:14.519Z,13.87
2023-01-12T00:11:19.266Z,17.43
2023-01-12T00:15:57.812Z,12.20
2023-01-12T00:20:01.437Z,13.47
2023-01-12T00:24:08.704Z,11.07
2023-01-12T00:28:12.200Z,15.40
2023-01-12T00:32:18.918Z,19.93
2023-01-12T00:36:22.714Z,11.10
2023-01-12T00:40:26.466Z,16.10
2023-01-12T00:44:47.987Z,26.67
2023-01-12T00:48:52.919Z,15.80
2023-01-12T00:52:56.679Z,18.17
2023-01-12T00:57:00.529Z,17.67
2023-01-12T01:01:09.082Z,15.30
2023-01-12T01:05:14.096Z,17.90
2023-01-12T01:09:17.885Z,21.70
2023-01-12T01:13:21.367Z,19.53
2023-01-12T01:17:25.163Z,22.67
2023-01-12T01:21:30.151Z,18.37
2023-01-12T01:25:34.804Z,16.40
2023-01-12T01:29:38.336Z,24.37
2023-01-12T01:33:42.260Z,15.13
2023-01-12T01:37:47.439Z,21.17
2023-01-12T01:41:50.990Z,19.37
2023-01-12T01:46:01.412Z,14.87
2023-01-12T01:50:15.558Z,13.00
2023-01-12T01:54:22.715Z,12.80
2023-01-12T01:58:30.557Z,17.50
2023-01-12T02:02:36.004Z,18.50
2023-01-12T02:06:39.944Z,18.50
2023-01-12T02:10:45.362Z,18.20
2023-01-12T02:15:08.636Z,17.37
2023-01-12T02:19:30.600Z,15.03
2023-01-12T02:24:12.669Z,20.60
2023-01-12T02:28:49.320Z,15.50
2023-01-12T02:33:02.740Z,15.00
2023-01-12T02:37:17.652Z,19.47
2023-01-12T02:41:46.393Z,13.30
2023-01-12T02:45:54.872Z,16.23
2023-01-12T02:50:03.375Z,20.00
2023-01-12T02:54:11.193Z,15.57
2023-01-12T02:58:19.026Z,18.33
2023-01-12T03:02:25.740Z,13.93
2023-01-12T03:06:41.923Z,12.90
2023-01-12T03:11:06.712Z,14.70
2023-01-12T03:15:12.890Z,12.30
2023-01-12T03:19:20.443Z,17.67
2023-01-12T03:23:30.467Z,21.13
2023-01-12T03:27:38.511Z,14.67
2023-01-12T03:31:43.257Z,13.23
2023-01-12T03:35:57.287Z,10.90
2023-01-12T03:40:06.141Z,14.90
2023-01-12T03:44:21.564Z,14.10
2023-01-12T03:48:31.317Z,13.00
2023-01-12T03:52:37.392Z,18.10
2023-01-12T03:56:45.807Z,13.87
2023-01-12T04:00:51.595Z,18.03
2023-01-12T04:04:55.119Z,12.43
2023-01-12T04:08:58.626Z,12.70
2023-01-12T04:13:03.349Z,12.40
2023-01-12T04:17:06.913Z,12.83
2023-01-12T04:21:30.669Z,12.87
2023-01-12T04:25:35.075Z,15.10
2023-01-12T04:29:39.808Z,15.67
2023-01-12T04:33:43.290Z,17.90
2023-01-12T04:37:47.602Z,10.40
2023-01-12T04:41:51.114Z,13.90
2023-01-12T04:45:55.798Z,14.10
2023-01-12T04:49:59.111Z,16.90
2023-01-12T04:54:02.469Z,11.53
2023-01-12T04:58:06.087Z,11.40
2023-01-12T05:02:10.966Z,12.10
2023-01-12T05:06:14.625Z,12.63
2023-01-12T05:10:24.295Z,9.83
2023-01-12T05:14:27.582Z,12.47
2023-01-12T05:18:32.613Z,11.80
2023-01-12T05:22:36.282Z,14.93
2023-01-12T05:26:39.582Z,10.77
2023-01-12T05:30:42.901Z,12.53
2023-01-12T05:34:48.584Z,13.10
2023-01-12T05:38:51.952Z,14.13
2023-01-12T05:43:13.224Z,11.00
2023-01-12T05:47:16.926Z,10.83
2023-01-12T05:51:22.584Z,14.20
2023-01-12T05:55:25.913Z,12.30
2023-01-12T05:59:29.368Z,12.87
2023-01-12T06:03:33.415Z,13.60
2023-01-12T06:07:38.772Z,11.43
2023-01-12T06:11:59.587Z,15.43
2023-01-12T06:16:05.336Z,12.70
2023-01-12T06:20:10.701Z,14.63
2023-01-12T06:24:16.148Z,12.30
2023-01-12T06:28:19.435Z,13.53
2023-01-12T06:32:22.777Z,13.73
2023-01-12T06:36:26.114Z,11.53
2023-01-12T06:40:30.720Z,10.33
2023-01-12T06:44:34.014Z,9.63
2023-01-12T06:48:38.680Z,12.80
2023-01-12T06:52:43.828Z,10.97
2023-01-12T06:56:48.633Z,10.03
2023-01-12T07:00:52.156Z,12.63
2023-01-12T07:04:55.563Z,11.43
2023-01-12T07:08:58.980Z,9.27
2023-01-12T07:13:03.559Z,9.30
2023-01-12T07:17:06.897Z,7.80
2023-01-12T07:21:13.568Z,18.67
2023-01-12T07:25:17.194Z,16.10
2023-01-12T07:29:21.824Z,11.30
2023-01-12T07:33:25.151Z,14.90
2023-01-12T07:37:28.440Z,12.97
2023-01-12T07:41:49.302Z,11.90
2023-01-12T07:45:56.808Z,12.80
2023-01-12T07:50:00.164Z,9.93
2023-01-12T07:54:03.626Z,12.00
2023-01-12T07:58:09.268Z,8.73
2023-01-12T08:02:23.290Z,10.50
2023-01-12T08:06:26.708Z,14.30
2023-01-12T08:10:30.319Z,14.43
2023-01-12T08:14:37.326Z,7.07
2023-01-12T08:18:47.553Z,8.77
2023-01-12T08:22:54.601Z,10.67
2023-01-12T08:27:00.072Z,9.50
2023-01-12T08:31:03.670Z,10.03
2023-01-12T08:35:10.090Z,9.97
2023-01-12T08:39:13.416Z,11.87
2023-01-12T08:43:38.733Z,11.10
2023-01-12T08:47:44.498Z,11.67
2023-01-12T08:51:49.213Z,11.17
2023-01-12T08:55:54.109Z,9.87
2023-01-12T08:59:57.750Z,11.37
2023-01-12T09:04:01.093Z,7.53
2023-01-12T09:08:06.033Z,9.33
2023-01-12T09:12:09.572Z,9.33
2023-01-12T09:16:15.039Z,6.80
2023-01-12T09:20:18.706Z,10.30
2023-01-12T09:24:23.460Z,5.23
2023-01-12T09:28:26.864Z,9.70
2023-01-12T09:32:36.727Z,7.63
2023-01-12T09:36:41.688Z,7.63
2023-01-12T09:40:46.522Z,8.43
2023-01-12T09:45:10.864Z,6.67
2023-01-12T09:49:16.776Z,13.43
2023-01-12T09:53:26.578Z,6.57
2023-01-12T09:58:04.104Z,4.67
2023-01-12T10:02:13.136Z,10.53
2023-01-12T10:06:18.213Z,13.77
2023-01-12T10:10:21.757Z,8.67
2023-01-12T10:14:39.061Z,9.50
2023-01-12T10:18:47.665Z,6.07
2023-01-12T10:22:54.799Z,6.80
2023-01-12T10:27:02.429Z,7.27
2023-01-12T10:31:18.071Z,11.90
2023-01-12T10:35:24.626Z,11.27
2023-01-12T10:39:32.250Z,16.10
2023-01-12T10:43:35.841Z,13.30
2023-01-12T10:47:40.654Z,14.70
2023-01-12T10:51:52.235Z,16.67
2023-01-12T10:55:57.883Z,15.53
2023-01-12T11:00:05.851Z,18.43
2023-01-12T11:04:14.388Z,16.67
2023-01-12T11:08:24.536Z,17.10
2023-01-12T11:12:32.772Z,19.43
2023-01-12T11:16:40.685Z,17.57
2023-01-12T11:20:51.656Z,16.47
2023-01-12T11:24:59.145Z,26.40
2023-01-12T11:29:08.985Z,19.77
2023-01-12T11:33:16.576Z,14.80
2023-01-12T11:37:21.437Z,19.73
2023-01-12T11:41:29.598Z,13.10
2023-01-12T11:45:44.721Z,15.97
2023-01-12T11:49:55.492Z,14.37
2023-01-12T11:54:00.663Z,9.00
2023-01-12T11:58:14.588Z,7.90
2023-01-12T12:02:34.103Z,8.23
2023-01-12T12:07:01.256Z,11.17
2023-01-12T12:11:13.087Z,7.53
2023-01-12T12:15:29.518Z,6.47
2023-01-12T12:19:45.269Z,7.63
2023-01-12T12:23:59.108Z,6.57
2023-01-12T12:43:26.891Z,5.17
2023-01-12T12:47:54.410Z,5.80
2023-01-12T12:51:59.281Z,5.97
2023-01-12T12:56:05.741Z,6.27
2023-01-12T13:00:30.830Z,5.37
2023-01-12T13:05:06.126Z,6.83
2023-01-12T13:09:41.092Z,5.80
2023-01-12T13:14:00.264Z,6.03
2023-01-12T13:18:06.789Z,5.90
2023-01-12T13:22:29.156Z,6.10
2023-01-12T13:26:43.845Z,5.30
2023-01-12T13:30:57.288Z,5.10
2023-01-12T13:35:02.293Z,13.60
2023-01-12T13:39:09.297Z,7.70
2023-01-12T13:43:22.597Z,5.33
2023-01-12T13:47:30.650Z,12.83
2023-01-12T13:51:41.989Z,7.73
2023-01-12T13:55:57.821Z,11.13
2023-01-12T14:00:38.502Z,34.70
2023-01-12T14:05:06.955Z,32.70
2023-01-12T14:09:23.093Z,71.17
2023-01-12T14:14:15.998Z,43.17
2023-01-12T14:18:22.018Z,28.80
2023-01-12T14:22:26.141Z,9.40
2023-01-12T14:26:31.962Z,8.60
2023-01-12T14:30:36.924Z,6.27
2023-01-12T14:34:47.598Z,6.17
2023-01-12T14:38:52.321Z,5.37
2023-01-12T14:43:15.523Z,4.30
2023-01-12T14:47:29.816Z,7.67
2023-01-12T14:51:35.803Z,5.27
2023-01-12T14:55:41.408Z,4.73
2023-01-12T14:59:48.500Z,4.07
2023-01-12T15:03:53.599Z,5.20
2023-01-12T15:08:01.442Z,5.87
2023-01-12T15:12:27.137Z,4.57
2023-01-12T15:16:52.704Z,5.43
2023-01-12T15:21:17.028Z,6.57
2023-01-12T15:25:41.884Z,4.27
2023-01-12T15:29:46.519Z,5.20
2023-01-12T15:33:51.929Z,5.67
2023-01-12T15:38:03.246Z,3.60
2023-01-12T15:42:18.770Z,3.43
2023-01-12T15:46:22.836Z,2.30
2023-01-12T15:50:29.559Z,3.90
2023-01-12T15:54:34.891Z,7.50
2023-01-12T15:58:42.326Z,4.60
2023-01-12T16:02:48.875Z,6.53
2023-01-12T16:06:55.106Z,4.33
2023-01-12T16:11:17.015Z,7.27
2023-01-12T16:15:25.284Z,4.00
2023-01-12T16:19:29.109Z,3.87
2023-01-12T16:23:34.569Z,3.80
2023-01-12T16:27:39.145Z,3.97
2023-01-12T16:32:00.304Z,7.47
2023-01-12T16:36:04.452Z,7.10
2023-01-12T16:40:13.275Z,8.87
2023-01-12T16:44:19.324Z,11.37
2023-01-12T16:48:23.219Z,5.10
2023-01-12T16:53:31.220Z,9.40
2023-01-12T16:58:22.480Z,6.20
2023-01-12T17:02:32.124Z,7.03
2023-01-12T17:06:36.025Z,6.50
2023-01-12T17:10:39.835Z,7.97
2023-01-12T17:15:25.577Z,8.00
2023-01-12T17:19:32.588Z,7.87
2023-01-12T17:23:36.116Z,8.97
2023-01-12T17:27:41.624Z,9.80
2023-01-12T17:31:45.133Z,8.97
2023-01-12T17:35:50.330Z,8.17
2023-01-12T17:39:53.694Z,11.23
2023-01-12T17:43:58.740Z,9.83
2023-01-12T17:48:05.146Z,9.70
2023-01-12T17:52:10.039Z,12.20
2023-01-12T17:56:13.884Z,9.10
2023-01-12T18:00:18.279Z,8.10
2023-01-12T18:04:22.799Z,11.77
2023-01-12T18:08:27.428Z,7.30
2023-01-12T18:12:31.715Z,9.30
2023-01-12T18:16:36.143Z,8.37
2023-01-12T18:20:39.857Z,10.00
2023-01-12T18:24:45.345Z,12.53
2023-01-12T18:28:49.258Z,8.43
2023-01-12T18:32:52.688Z,10.90
2023-01-12T18:36:56.267Z,8.10
2023-01-12T18:41:20.803Z,12.40
2023-01-12T18:45:25.993Z,8.97
2023-01-12T18:49:30.871Z,10.20
2023-01-12T18:53:34.093Z,9.13
2023-01-12T18:57:40.140Z,13.93
2023-01-12T19:01:43.911Z,12.57
2023-01-12T19:05:58.823Z,10.83
2023-01-12T19:10:03.090Z,8.03
2023-01-12T19:14:26.626Z,9.80
2023-01-12T19:18:31.345Z,11.17
2023-01-12T19:22:52.470Z,17.90
2023-01-12T19:27:13.340Z,9.30
2023-01-12T19:31:20.359Z,8.60
2023-01-12T19:35:25.050Z,10.20
2023-01-12T19:39:49.387Z,9.87
2023-01-12T19:43:57.616Z,10.63
2023-01-12T19:48:04.171Z,15.37
2023-01-12T19:52:08.008Z,16.77
2023-01-12T19:56:13.559Z,15.10
2023-01-12T20:00:19.718Z,13.23
2023-01-12T20:04:25.712Z,11.87
2023-01-12T20:08:29.307Z,10.07
2023-01-12T20:12:34.636Z,9.33
2023-01-12T20:16:41.857Z,11.80
2023-01-12T20:20:47.447Z,11.03
2023-01-12T20:25:01.257Z,10.03
2023-01-12T20:29:05.220Z,11.87
2023-01-12T20:33:11.544Z,10.70
2023-01-12T20:37:16.442Z,13.60
2023-01-12T20:41:20.700Z,10.10
2023-01-12T20:45:25.199Z,13.33
2023-01-12T20:49:31.511Z,12.43
2023-01-12T20:53:36.885Z,10.97
2023-01-12T20:57:40.212Z,12.33
2023-01-12T21:01:44.624Z,7.93
2023-01-12T21:05:49.122Z,6.73
2023-01-12T21:09:54.230Z,8.43
2023-01-12T21:13:58.044Z,8.97
2023-01-12T21:18:01.608Z,8.10
2023-01-12T21:22:05.413Z,7.87
2023-01-12T21:26:11.295Z,10.17
2023-01-12T21:30:15.893Z,8.63
2023-01-12T21:34:19.399Z,12.60
2023-01-12T21:38:23.452Z,10.50
2023-01-12T21:42:47.142Z,11.17
2023-01-12T21:46:50.419Z,10.23
2023-01-12T21:50:54.195Z,11.93
2023-01-12T21:54:57.496Z,12.20
2023-01-12T21:59:02.406Z,13.93
2023-01-12T22:03:05.943Z,14.87
2023-01-12T22:07:12.424Z,17.30
2023-01-12T22:11:16.869Z,15.30
2023-01-12T22:15:21.955Z,9.33
2023-01-12T22:19:25.385Z,18.83
2023-01-12T22:23:28.750Z,21.20
2023-01-12T22:27:32.778Z,17.70
2023-01-12T22:31:37.549Z,12.97
2023-01-12T22:35:40.922Z,11.40
2023-01-12T22:39:44.219Z,13.10
2023-01-12T22:43:49.679Z,12.40
2023-01-12T22:47:55.641Z,18.00
2023-01-12T22:52:02.504Z,13.77
2023-01-12T22:56:06.690Z,15.30
2023-01-12T23:00:13.200Z,12.50
2023-01-12T23:04:25.164Z,12.37
2023-01-12T23:08:29.211Z,17.20
2023-01-12T23:12:33.134Z,17.60
2023-01-12T23:16:37.585Z,12.90
2023-01-12T23:20:43.086Z,21.27
2023-01-12T23:24:47.020Z,15.53
2023-01-12T23:28:53.054Z,11.80
2023-01-12T23:32:56.875Z,15.17
2023-01-12T23:37:02.244Z,10.90
2023-01-12T23:41:14.253Z,11.30
2023-01-12T23:45:19.586Z,12.53
2023-01-12T23:49:23.475Z,10.50
2023-01-12T23:53:30.213Z,12.90
2023-01-12T23:57:35.594Z,11.57
